createdAt,value
2018-10-17T00:01:40.904Z,16.60
2018-10-17T00:04:09.169Z,13.90
2018-10-17T00:06:37.456Z,16.87
2018-10-17T00:09:07.457Z,16.20
2018-10-17T00:11:35.872Z,18.03
2018-10-17T00:14:04.388Z,17.07
2018-10-17T00:16:32.652Z,16.83
2018-10-17T00:19:00.956Z,16.00
2018-10-17T00:21:29.216Z,17.70
2018-10-17T00:23:57.478Z,17.73
2018-10-17T00:26:25.800Z,19.40
2018-10-17T00:28:54.125Z,18.10
2018-10-17T00:31:22.479Z,18.20
2018-10-17T00:33:50.740Z,18.73
2018-10-17T00:36:19.029Z,18.37
2018-10-17T00:38:47.266Z,18.30
2018-10-17T00:41:15.585Z,18.17
2018-10-17T00:43:43.866Z,18.80
2018-10-17T00:46:12.176Z,19.00
2018-10-17T00:48:40.497Z,17.57
2018-10-17T00:51:08.781Z,17.60
2018-10-17T00:53:37.035Z,18.70
2018-10-17T00:56:05.982Z,20.20
2018-10-17T00:58:35.069Z,18.73
2018-10-17T01:01:04.516Z,18.90
2018-10-17T01:03:32.764Z,20.97
2018-10-17T01:06:01.049Z,18.53
2018-10-17T01:08:29.316Z,20.30
2018-10-17T01:10:57.642Z,18.87
2018-10-17T01:13:26.116Z,17.50
2018-10-17T01:15:54.388Z,18.63
2018-10-17T01:18:22.647Z,17.83
2018-10-17T01:20:50.895Z,18.60
2018-10-17T01:23:19.177Z,18.50
2018-10-17T01:25:47.436Z,18.97
2018-10-17T01:28:15.696Z,18.87
2018-10-17T01:30:43.993Z,20.63
2018-10-17T01:33:12.272Z,20.53
2018-10-17T01:35:40.537Z,18.70
2018-10-17T01:38:08.814Z,20.17
2018-10-17T01:40:37.048Z,21.30
2018-10-17T01:43:05.325Z,19.83
2018-10-17T01:45:33.612Z,20.10
2018-10-17T01:48:01.909Z,19.83
2018-10-17T01:50:30.225Z,21.60
2018-10-17T01:52:58.518Z,19.80
2018-10-17T01:55:26.851Z,19.63
2018-10-17T01:57:55.080Z,19.30
2018-10-17T02:00:23.364Z,22.50
2018-10-17T02:02:51.838Z,19.67
2018-10-17T02:05:20.284Z,21.17
2018-10-17T02:07:48.586Z,21.00
2018-10-17T02:10:16.860Z,20.43
2018-10-17T02:12:45.121Z,19.93
2018-10-17T02:15:13.393Z,20.43
2018-10-17T02:17:41.644Z,20.50
2018-10-17T02:20:09.916Z,20.80
2018-10-17T02:22:38.199Z,22.50
2018-10-17T02:25:06.662Z,20.60
2018-10-17T02:27:34.907Z,19.50
2018-10-17T02:30:03.342Z,20.27
2018-10-17T02:32:31.452Z,21.63
2018-10-17T02:35:05.250Z,20.60
2018-10-17T02:37:33.492Z,20.70
2018-10-17T02:40:01.821Z,21.77
2018-10-17T02:42:30.074Z,23.00
2018-10-17T02:44:58.425Z,21.60
2018-10-17T02:47:26.657Z,21.63
2018-10-17T02:49:55.096Z,22.20
2018-10-17T02:52:23.358Z,22.07
2018-10-17T02:54:51.658Z,23.27
2018-10-17T02:57:19.945Z,23.10
2018-10-17T02:59:48.221Z,22.90
2018-10-17T03:02:21.535Z,25.03
2018-10-17T03:05:04.391Z,21.43
2018-10-17T03:07:37.484Z,21.23
2018-10-17T03:10:05.863Z,22.30
2018-10-17T03:12:34.180Z,22.97
2018-10-17T03:15:02.513Z,21.37
2018-10-17T03:17:30.806Z,21.27
2018-10-17T03:19:59.106Z,22.27
2018-10-17T03:22:27.440Z,20.30
2018-10-17T03:24:55.842Z,21.00
2018-10-17T03:27:24.028Z,19.50
2018-10-17T03:29:52.469Z,21.97
2018-10-17T03:35:11.453Z,20.03
2018-10-17T03:37:39.668Z,21.20
2018-10-17T03:40:08.083Z,18.70
2018-10-17T03:42:36.333Z,19.63
2018-10-17T03:45:05.021Z,22.03
2018-10-17T03:47:33.340Z,22.13
2018-10-17T03:50:01.679Z,22.30
2018-10-17T03:52:29.933Z,21.73
2018-10-17T03:54:58.331Z,20.30
2018-10-17T03:57:26.661Z,22.37
2018-10-17T03:59:55.075Z,22.70
2018-10-17T04:02:23.379Z,21.87
2018-10-17T04:04:51.716Z,22.00
2018-10-17T04:07:20.114Z,23.83
2018-10-17T04:09:48.364Z,21.87
2018-10-17T04:12:16.664Z,24.43
2018-10-17T04:14:44.944Z,21.33
2018-10-17T04:17:13.519Z,21.60
2018-10-17T04:19:41.605Z,21.53
2018-10-17T04:22:09.884Z,22.33
2018-10-17T04:24:38.193Z,22.80
2018-10-17T04:27:06.517Z,22.90
2018-10-17T04:29:34.857Z,22.53
2018-10-17T04:32:03.293Z,21.50
2018-10-17T04:34:31.660Z,23.57
2018-10-17T04:37:00.149Z,21.90
2018-10-17T04:39:28.378Z,22.53
2018-10-17T04:41:56.786Z,22.10
2018-10-17T04:44:25.071Z,21.40
2018-10-17T04:46:53.427Z,20.97
2018-10-17T04:49:21.704Z,21.37
2018-10-17T04:51:49.972Z,22.37
2018-10-17T04:54:18.337Z,23.23
2018-10-17T04:56:46.635Z,22.40
2018-10-17T04:59:15.215Z,22.60
2018-10-17T05:01:43.421Z,21.97
2018-10-17T05:04:12.248Z,23.60
2018-10-17T05:06:40.545Z,21.67
2018-10-17T05:09:09.941Z,21.83
2018-10-17T05:14:29.256Z,21.40
2018-10-17T05:16:57.591Z,21.10
2018-10-17T05:19:25.861Z,21.33
2018-10-17T05:21:54.160Z,23.90
2018-10-17T05:24:22.469Z,24.03
2018-10-17T05:26:50.820Z,22.83
2018-10-17T05:29:20.265Z,23.00
2018-10-17T05:31:48.545Z,22.97
2018-10-17T05:34:16.865Z,24.70
2018-10-17T05:36:45.141Z,22.10
2018-10-17T05:39:13.513Z,24.30
2018-10-17T05:41:41.845Z,25.70
2018-10-17T05:44:10.232Z,25.30
2018-10-17T05:46:38.497Z,24.80
2018-10-17T05:49:07.010Z,27.53
2018-10-17T05:51:35.220Z,25.50
2018-10-17T05:54:03.577Z,25.90
2018-10-17T05:56:31.900Z,25.07
2018-10-17T05:59:00.235Z,27.73
2018-10-17T06:01:28.631Z,27.37
2018-10-17T06:12:49.800Z,28.33
2018-10-17T06:15:18.161Z,30.37
2018-10-17T06:17:46.538Z,27.87
2018-10-17T06:20:14.818Z,27.00
2018-10-17T06:22:43.126Z,25.63
2018-10-17T06:25:11.638Z,27.20
2018-10-17T06:27:39.909Z,27.07
2018-10-17T06:30:09.543Z,26.87
2018-10-17T06:32:37.848Z,27.73
2018-10-17T06:35:06.703Z,27.00
2018-10-17T06:37:35.226Z,25.70
2018-10-17T06:40:03.549Z,27.50
2018-10-17T06:42:31.989Z,28.00
2018-10-17T06:45:00.268Z,27.77
2018-10-17T06:47:28.553Z,26.10
2018-10-17T06:49:56.919Z,27.40
2018-10-17T06:52:25.196Z,29.73
2018-10-17T06:54:53.608Z,29.00
2018-10-17T06:57:21.924Z,29.43
2018-10-17T06:59:50.240Z,26.90
2018-10-17T07:02:19.138Z,28.00
2018-10-17T07:04:47.425Z,26.47
2018-10-17T07:07:15.802Z,26.83
2018-10-17T07:09:44.257Z,27.40
2018-10-17T07:12:12.539Z,25.93
2018-10-17T07:14:40.882Z,28.50
2018-10-17T07:17:09.233Z,29.17
2018-10-17T07:19:37.492Z,25.27
2018-10-17T07:22:05.857Z,24.83
2018-10-17T07:24:34.341Z,29.50
2018-10-17T07:27:03.143Z,27.33
2018-10-17T07:29:31.678Z,30.57
2018-10-17T07:31:59.876Z,31.23
2018-10-17T07:34:28.184Z,29.37
2018-10-17T07:36:56.493Z,29.93
2018-10-17T07:39:24.804Z,29.50
2018-10-17T07:41:53.364Z,32.20
2018-10-17T07:44:21.601Z,29.93
2018-10-17T07:46:49.912Z,31.57
2018-10-17T07:49:18.245Z,30.83
2018-10-17T07:51:46.790Z,33.10
2018-10-17T07:54:15.432Z,33.67
2018-10-17T07:56:43.601Z,33.77
2018-10-17T07:59:11.906Z,34.40
2018-10-17T08:01:40.226Z,35.60
2018-10-17T08:04:08.560Z,37.13
2018-10-17T08:06:37.043Z,36.13
2018-10-17T08:09:08.681Z,35.13
2018-10-17T08:11:37.324Z,36.83
2018-10-17T08:14:05.857Z,35.97
2018-10-17T08:16:34.138Z,37.07
2018-10-17T08:19:02.534Z,37.50
2018-10-17T08:21:31.130Z,39.40
2018-10-17T08:23:59.736Z,38.40
2018-10-17T08:26:28.200Z,37.77
2018-10-17T08:28:56.466Z,38.87
2018-10-17T08:31:24.846Z,41.23
2018-10-17T08:33:53.266Z,41.97
2018-10-17T08:36:21.746Z,42.67
2018-10-17T08:38:49.906Z,41.37
2018-10-17T08:41:18.197Z,38.90
2018-10-17T08:43:46.501Z,42.40
2018-10-17T08:46:15.245Z,43.20
2018-10-17T08:48:43.837Z,42.97
2018-10-17T08:51:12.139Z,40.20
2018-10-17T08:53:40.536Z,39.30
2018-10-17T08:56:08.893Z,44.30
2018-10-17T08:58:37.229Z,42.47
2018-10-17T09:01:05.804Z,42.37
2018-10-17T09:03:34.251Z,42.53
2018-10-17T09:06:02.633Z,41.53
2018-10-17T09:08:30.869Z,42.20
2018-10-17T09:10:59.277Z,43.97
2018-10-17T09:13:27.667Z,40.40
2018-10-17T09:15:55.963Z,41.73
2018-10-17T09:18:24.237Z,42.87
2018-10-17T09:20:52.774Z,43.97
2018-10-17T09:23:20.899Z,41.57
2018-10-17T09:25:49.205Z,43.20
2018-10-17T09:28:17.561Z,44.17
2018-10-17T09:30:45.882Z,43.33
2018-10-17T09:33:14.108Z,38.53
2018-10-17T09:35:42.460Z,40.20
2018-10-17T09:38:10.742Z,40.90
2018-10-17T09:40:39.101Z,36.13
2018-10-17T09:43:07.516Z,39.00
2018-10-17T09:45:35.975Z,40.20
2018-10-17T09:48:04.953Z,40.40
2018-10-17T09:50:33.251Z,37.67
2018-10-17T09:53:01.549Z,37.00
2018-10-17T09:55:30.373Z,35.20
2018-10-17T09:57:58.780Z,40.17
2018-10-17T10:00:32.317Z,37.97
2018-10-17T10:03:00.657Z,41.60
2018-10-17T10:05:28.979Z,39.30
2018-10-17T10:07:57.401Z,36.90
2018-10-17T10:10:25.713Z,37.13
2018-10-17T10:12:54.136Z,37.33
2018-10-17T10:15:22.846Z,37.50
2018-10-17T10:17:51.181Z,37.10
2018-10-17T10:20:19.485Z,41.63
2018-10-17T10:22:47.950Z,37.53
2018-10-17T10:25:16.328Z,37.40
2018-10-17T10:27:44.634Z,32.53
2018-10-17T10:30:13.055Z,36.67
2018-10-17T10:32:41.333Z,29.90
2018-10-17T10:35:09.662Z,34.47
2018-10-17T10:37:37.973Z,33.60
2018-10-17T10:40:06.895Z,33.67
2018-10-17T10:42:35.237Z,30.80
2018-10-17T10:45:03.772Z,30.93
2018-10-17T10:47:32.123Z,33.63
2018-10-17T10:50:00.542Z,33.20
2018-10-17T10:52:28.817Z,33.90
2018-10-17T10:54:57.094Z,34.07
2018-10-17T10:57:25.398Z,31.60
2018-10-17T10:59:53.773Z,33.33
2018-10-17T11:02:22.050Z,32.00
2018-10-17T11:04:50.456Z,26.37
2018-10-17T11:07:18.655Z,28.53
2018-10-17T11:09:46.993Z,26.27
2018-10-17T11:12:15.276Z,29.73
2018-10-17T11:14:43.955Z,27.90
2018-10-17T11:17:12.115Z,28.63
2018-10-17T11:19:40.393Z,27.90
2018-10-17T11:22:08.688Z,30.63
2018-10-17T11:24:36.979Z,27.57
2018-10-17T11:27:05.425Z,27.90
2018-10-17T11:29:33.765Z,28.90
2018-10-17T11:32:02.252Z,26.40
2018-10-17T11:34:30.515Z,30.10
2018-10-17T11:36:58.806Z,29.53
2018-10-17T11:39:27.129Z,26.40
2018-10-17T11:41:55.506Z,25.83
2018-10-17T11:44:24.106Z,28.30
2018-10-17T11:46:52.446Z,29.40
2018-10-17T11:49:20.701Z,23.53
2018-10-17T11:51:48.996Z,24.63
2018-10-17T11:54:17.361Z,31.03
2018-10-17T11:56:45.689Z,27.00
2018-10-17T12:02:05.045Z,29.07
2018-10-17T12:04:33.577Z,29.93
2018-10-17T12:07:01.887Z,28.40
2018-10-17T12:09:30.225Z,25.77
2018-10-17T12:11:58.631Z,27.23
2018-10-17T12:14:26.860Z,28.53
2018-10-17T12:16:55.204Z,25.10
2018-10-17T12:19:23.500Z,34.93
2018-10-17T12:21:51.805Z,26.70
2018-10-17T12:24:20.403Z,29.93
2018-10-17T12:26:48.699Z,30.20
2018-10-17T12:29:17.065Z,26.07
2018-10-17T12:31:45.356Z,28.00
2018-10-17T12:34:13.644Z,29.43
2018-10-17T12:36:41.970Z,30.90
2018-10-17T12:39:12.229Z,29.53
2018-10-17T12:41:40.862Z,28.30
2018-10-17T12:44:08.980Z,31.20
2018-10-17T12:46:37.459Z,28.60
2018-10-17T12:49:05.796Z,27.73
2018-10-17T12:51:34.114Z,29.57
2018-10-17T12:54:02.509Z,29.27
2018-10-17T12:56:30.843Z,29.17
2018-10-17T12:58:59.193Z,32.40
2018-10-17T13:01:27.585Z,29.13
2018-10-17T13:03:55.876Z,28.53
2018-10-17T13:06:24.489Z,27.63
2018-10-17T13:08:52.781Z,27.33
2018-10-17T13:11:21.130Z,28.10
2018-10-17T13:13:49.520Z,31.83
2018-10-17T13:16:18.261Z,28.63
2018-10-17T13:18:46.701Z,26.33
2018-10-17T13:21:15.088Z,27.30
2018-10-17T13:23:43.590Z,27.43
2018-10-17T13:26:11.925Z,30.10
2018-10-17T13:28:40.255Z,27.17
2018-10-17T13:31:08.643Z,121.07
2018-10-17T13:33:36.994Z,88.23
2018-10-17T13:36:05.338Z,24.80
2018-10-17T13:38:33.683Z,26.07
2018-10-17T13:41:02.039Z,23.50
2018-10-17T13:43:30.304Z,24.03
2018-10-17T13:45:58.560Z,23.40
2018-10-17T13:48:26.941Z,23.63
2018-10-17T13:50:55.244Z,22.60
2018-10-17T13:53:23.613Z,21.20
2018-10-17T13:55:51.978Z,21.67
2018-10-17T13:58:20.460Z,24.23
2018-10-17T14:00:48.751Z,23.27
2018-10-17T14:03:17.061Z,20.90
2018-10-17T14:05:45.369Z,22.07
2018-10-17T14:08:13.689Z,23.10
2018-10-17T14:10:41.963Z,23.33
2018-10-17T14:13:10.306Z,22.40
2018-10-17T14:15:38.615Z,23.30
2018-10-17T14:18:06.970Z,23.20
2018-10-17T14:20:35.372Z,20.50
2018-10-17T14:23:03.716Z,19.97
2018-10-17T14:25:32.074Z,17.00
2018-10-17T14:28:00.498Z,17.33
2018-10-17T14:30:28.892Z,18.53
2018-10-17T14:32:57.234Z,18.03
2018-10-17T14:35:25.504Z,17.60
2018-10-17T14:37:53.938Z,17.83
2018-10-17T14:40:22.167Z,17.50
2018-10-17T14:42:50.488Z,19.27
2018-10-17T14:45:19.103Z,18.87
2018-10-17T14:47:47.339Z,18.30
2018-10-17T14:50:15.660Z,18.50
2018-10-17T14:52:43.997Z,17.87
2018-10-17T14:55:12.290Z,17.70
2018-10-17T14:57:40.658Z,18.83
2018-10-17T15:00:12.437Z,21.00
2018-10-17T15:02:42.307Z,18.60
2018-10-17T15:05:11.053Z,18.80
2018-10-17T15:07:39.951Z,18.73
2018-10-17T15:10:08.394Z,18.27
2018-10-17T15:12:36.749Z,17.07
2018-10-17T15:15:05.867Z,17.43
2018-10-17T15:17:34.352Z,18.47
2018-10-17T15:20:02.661Z,18.77
2018-10-17T15:22:30.993Z,18.23
2018-10-17T15:24:59.340Z,18.63
2018-10-17T15:27:27.658Z,16.57
2018-10-17T15:29:55.960Z,19.03
2018-10-17T15:32:24.236Z,20.07
2018-10-17T15:34:52.557Z,19.50
2018-10-17T15:37:20.829Z,19.20
2018-10-17T15:39:49.124Z,17.50
2018-10-17T15:42:17.524Z,17.03
2018-10-17T15:44:45.796Z,17.30
2018-10-17T15:47:14.357Z,23.30
2018-10-17T15:49:42.606Z,17.30
2018-10-17T15:52:10.980Z,15.90
2018-10-17T15:54:39.248Z,14.87
2018-10-17T15:57:07.892Z,14.50
2018-10-17T15:59:36.167Z,16.10
2018-10-17T16:02:04.736Z,15.37
2018-10-17T16:04:33.056Z,12.97
2018-10-17T16:07:01.438Z,13.73
2018-10-17T16:09:29.717Z,14.00
2018-10-17T16:11:58.141Z,13.60
2018-10-17T16:14:26.466Z,12.50
2018-10-17T16:16:54.879Z,14.97
2018-10-17T16:19:23.141Z,14.20
2018-10-17T16:21:51.433Z,13.33
2018-10-17T16:24:19.810Z,12.20
2018-10-17T16:26:48.046Z,12.87
2018-10-17T16:29:16.656Z,12.73
2018-10-17T16:31:44.974Z,13.90
2018-10-17T16:34:13.337Z,13.63
2018-10-17T16:36:41.624Z,14.33
2018-10-17T16:39:11.324Z,13.83
2018-10-17T16:41:39.643Z,13.17
2018-10-17T16:44:08.508Z,14.27
2018-10-17T16:46:37.156Z,13.53
2018-10-17T16:49:05.953Z,14.33
2018-10-17T16:51:34.271Z,13.83
2018-10-17T16:54:02.907Z,13.93
2018-10-17T16:56:31.338Z,15.00
2018-10-17T16:58:59.675Z,14.97
2018-10-17T17:01:28.043Z,15.73
2018-10-17T17:03:56.560Z,15.17
2018-10-17T17:06:25.115Z,14.10
2018-10-17T17:08:53.786Z,15.30
2018-10-17T17:11:22.355Z,16.20
2018-10-17T17:13:50.676Z,15.50
2018-10-17T17:16:19.083Z,13.37
2018-10-17T17:18:47.400Z,13.60
2018-10-17T17:21:16.075Z,12.20
2018-10-17T17:23:44.379Z,13.47
2018-10-17T17:26:12.671Z,11.90
2018-10-17T17:28:41.057Z,10.90
2018-10-17T17:31:09.409Z,13.40
2018-10-17T17:33:37.819Z,11.13
2018-10-17T17:36:06.173Z,10.53
2018-10-17T17:38:35.321Z,10.90
2018-10-17T17:41:03.630Z,13.40
2018-10-17T17:43:32.060Z,10.97
2018-10-17T17:46:00.466Z,10.77
2018-10-17T17:48:28.736Z,11.17
2018-10-17T17:50:57.008Z,11.97
2018-10-17T17:53:25.361Z,11.27
2018-10-17T17:55:53.633Z,14.50
2018-10-17T17:58:22.004Z,12.20
2018-10-17T18:00:50.260Z,12.30
2018-10-17T18:03:18.573Z,12.50
2018-10-17T18:05:46.866Z,12.93
2018-10-17T18:08:15.193Z,12.00
2018-10-17T18:10:43.514Z,11.30
2018-10-17T18:13:11.809Z,11.20
2018-10-17T18:15:40.320Z,12.80
2018-10-17T18:18:08.610Z,12.67
2018-10-17T18:20:36.926Z,10.80
2018-10-17T18:23:05.940Z,12.30
2018-10-17T18:25:34.283Z,11.27
2018-10-17T18:28:03.123Z,12.33
2018-10-17T18:30:31.343Z,12.33
2018-10-17T18:32:59.632Z,10.97
2018-10-17T18:35:28.110Z,11.93
2018-10-17T18:37:56.449Z,11.97
2018-10-17T18:40:24.820Z,12.60
2018-10-17T18:42:53.982Z,12.00
2018-10-17T18:45:22.963Z,13.50
2018-10-17T18:47:51.605Z,13.30
2018-10-17T18:50:20.104Z,12.60
2018-10-17T18:52:48.887Z,13.17
2018-10-17T18:55:17.440Z,13.40
2018-10-17T18:57:46.177Z,12.87
2018-10-17T19:00:15.467Z,14.80
2018-10-17T19:02:43.936Z,13.23
2018-10-17T19:05:12.483Z,12.63
2018-10-17T19:07:41.012Z,12.17
2018-10-17T19:10:10.759Z,13.97
2018-10-17T19:12:39.708Z,12.90
2018-10-17T19:15:08.847Z,13.13
2018-10-17T19:17:37.439Z,13.37
2018-10-17T19:20:06.251Z,13.07
2018-10-17T19:22:34.552Z,14.17
2018-10-17T19:25:03.865Z,14.40
2018-10-17T19:27:32.448Z,12.87
2018-10-17T19:30:00.782Z,14.33
2018-10-17T19:32:29.325Z,14.60
2018-10-17T19:34:58.204Z,13.00
2018-10-17T19:37:26.830Z,14.23
2018-10-17T19:39:55.287Z,15.70
2018-10-17T19:42:23.770Z,15.20
2018-10-17T19:44:52.202Z,15.43
2018-10-17T19:47:20.725Z,14.20
2018-10-17T19:49:49.236Z,14.83
2018-10-17T19:52:18.294Z,15.03
2018-10-17T19:54:46.637Z,14.73
2018-10-17T19:57:14.978Z,15.13
2018-10-17T19:59:43.352Z,15.17
2018-10-17T20:02:11.734Z,15.73
2018-10-17T20:04:40.167Z,15.07
2018-10-17T20:07:08.806Z,15.97
2018-10-17T20:09:37.649Z,15.63
2018-10-17T20:12:06.400Z,14.50
2018-10-17T20:14:34.796Z,15.67
2018-10-17T20:17:03.321Z,16.20
2018-10-17T20:19:31.979Z,15.63
2018-10-17T20:22:00.548Z,16.03
2018-10-17T20:24:29.149Z,15.43
2018-10-17T20:26:57.795Z,16.20
2018-10-17T20:29:26.280Z,15.53
2018-10-17T20:31:55.148Z,15.23
2018-10-17T20:34:23.830Z,16.53
2018-10-17T20:36:52.122Z,16.70
2018-10-17T20:39:20.449Z,16.20
2018-10-17T20:41:48.800Z,17.03
2018-10-17T20:44:17.121Z,17.23
2018-10-17T20:46:45.409Z,16.40
2018-10-17T20:49:13.789Z,17.07
2018-10-17T20:51:42.136Z,16.90
2018-10-17T20:54:10.428Z,17.80
2018-10-17T20:56:38.719Z,18.10
2018-10-17T20:59:07.024Z,16.93
2018-10-17T21:01:35.847Z,18.67
2018-10-17T21:04:04.455Z,17.63
2018-10-17T21:06:32.737Z,16.50
2018-10-17T21:09:01.072Z,17.20
2018-10-17T21:11:29.372Z,19.33
2018-10-17T21:13:57.673Z,18.90
2018-10-17T21:16:26.133Z,20.40
2018-10-17T21:18:54.486Z,19.00
2018-10-17T21:21:22.689Z,19.27
2018-10-17T21:23:50.998Z,19.60
2018-10-17T21:26:19.277Z,18.97
2018-10-17T21:28:47.605Z,19.00
2018-10-17T21:31:15.888Z,19.80
2018-10-17T21:33:44.257Z,19.13
2018-10-17T21:36:12.573Z,18.80
2018-10-17T21:38:40.876Z,18.77
2018-10-17T21:41:09.182Z,18.30
2018-10-17T21:43:37.497Z,17.50
2018-10-17T21:46:05.909Z,19.17
2018-10-17T21:48:34.227Z,18.50
2018-10-17T21:51:02.549Z,18.43
2018-10-17T21:53:30.949Z,19.67
2018-10-17T21:55:59.316Z,16.73
2018-10-17T21:58:27.584Z,18.97
2018-10-17T22:00:55.917Z,20.43
2018-10-17T22:03:24.212Z,17.70
2018-10-17T22:05:52.530Z,18.87
2018-10-17T22:08:20.861Z,18.43
2018-10-17T22:10:49.192Z,19.33
2018-10-17T22:13:17.508Z,19.33
2018-10-17T22:15:45.894Z,18.37
2018-10-17T22:18:14.224Z,19.10
2018-10-17T22:20:42.516Z,17.63
2018-10-17T22:23:11.077Z,18.90
2018-10-17T22:25:39.497Z,18.27
2018-10-17T22:28:07.772Z,17.40
2018-10-17T22:30:36.104Z,18.57
2018-10-17T22:33:04.412Z,19.30
2018-10-17T22:35:32.736Z,20.40
2018-10-17T22:38:01.076Z,17.13
2018-10-17T22:40:29.328Z,18.10
2018-10-17T22:42:57.637Z,19.00
2018-10-17T22:45:25.916Z,18.43
2018-10-17T22:47:54.268Z,18.10
2018-10-17T22:50:22.566Z,17.43
2018-10-17T22:52:51.009Z,18.50
2018-10-17T22:55:19.496Z,18.50
2018-10-17T22:57:47.782Z,16.53
2018-10-17T23:00:16.050Z,17.97
2018-10-17T23:02:44.370Z,17.53
2018-10-17T23:05:12.684Z,18.00
2018-10-17T23:07:40.986Z,18.00
2018-10-17T23:10:09.255Z,18.57
2018-10-17T23:12:37.565Z,17.50
2018-10-17T23:15:10.234Z,19.60
2018-10-17T23:17:38.589Z,18.47
2018-10-17T23:20:07.053Z,17.27
2018-10-17T23:22:35.315Z,18.90
2018-10-17T23:25:03.881Z,17.90
2018-10-17T23:27:32.188Z,17.10
2018-10-17T23:30:00.661Z,17.73
2018-10-17T23:32:28.936Z,17.40
2018-10-17T23:34:57.464Z,16.67
2018-10-17T23:37:25.760Z,17.23
2018-10-17T23:39:54.049Z,17.13
2018-10-17T23:42:22.394Z,15.93
2018-10-17T23:45:02.672Z,16.60
2018-10-17T23:47:31.045Z,15.87
2018-10-17T23:49:59.403Z,16.83
2018-10-17T23:52:27.693Z,16.60
2018-10-17T23:54:55.949Z,15.57
2018-10-17T23:57:25.602Z,15.83
2018-10-17T23:59:55.870Z,17.37
